Pagina principale
METAR-TAF:

METAR-TAF

Aeroporti :

Santa Caterina, Egitto

latitudine: 28-41-07N, longitudine: 034-03-45E, altezza: 1331 m

Osservazione

Il bollettino è stato emesso 47 minuti fa, alle 04:00 UTC
Vento 5 kt da ovest
Temperature 19°C
Umidità 49%
Pressione 1018 hPa
Visibilità 10 km o più
nessuna nube inferiore a 1500 m e nessun cumulonembo

METAR: HESC 160400Z 28005KT CAVOK 19/08 Q1018 NOSIG

Ora: 06:47 (04:47 UTC)

Previsione

Il bollettino è stato emesso 5 ore e 47 minuti fa, alle 23:00 UTC
Previsione valida dal 16 alle 00 UTC al 17 alle 06 UTC
Vento 3 kt da direzioni variabili
Visibilità 10 km o più
nessuna nube inferiore a 1500 m e nessun cumulonembo
Evoluzione graduale
dal 16 alle 07 UTC al 16 alle 09 UTC
Vento 10 kt da nord/nord-ovest
Evoluzione graduale
dal 16 alle 17 UTC al 16 alle 19 UTC
Vento 3 kt da direzioni variabili

TAF: HESC 152300Z 1600/1706 VRB03KT CAVOK BECMG 1607/1609 34010KT BECMG 1617/1619 VRB03KT

Osservazioni e previsioni meteorologiche di più di 4000 aeroporti (messaggi METAR e TAF).

Le stazioni disponibili sono rappresentate dai dischi gialli e rossi sulla carta.

Puntare il mouse per vedere il nome della stazione.

Clicca sopra per visualizzare le osservazioni e previsioni meteorologiche.

Per cambiare la mappa : fare clic sui pulsanti verdi con una croce nera per ingrandire, il pulsante verde con un trattino per diminuire, o sulla freccia verde per le mappe adiacenti.


METAR-TAF: